Time;durP1;ratioP1;P1;durP2;ratioP2;P2;SDS_P1;SDS_P2;PMS_P1;PMS_P2;Temp;Humidity;BMP_temperature;BMP_pressure;BME280_temperature;BME280_humidity;BME280_pressure;Samples;Min_cycle;Max_cycle;Signal;HPM_P1;HPM_P2
2022/11/11 00:00:14;;;;;;;46.55;25.25;;;;;;;9.41;70.70;100126.03;5033406;28;20040;-57
2022/11/11 00:02:40;;;;;;;43.20;24.75;;;;;;;9.39;70.67;100125.31;5033149;28;20069;-55
2022/11/11 00:05:05;;;;;;;46.92;25.48;;;;;;;9.41;70.46;100120.69;5033144;28;20065;-55
2022/11/11 00:07:31;;;;;;;49.05;26.33;;;;;;;9.42;70.58;100110.88;5034364;28;20424;-55
2022/11/11 00:09:56;;;;;;;51.10;24.73;;;;;;;9.25;70.37;100085.34;5034872;28;20036;-54
2022/11/11 00:12:22;;;;;;;46.88;25.98;;;;;;;9.42;70.49;100114.38;5052952;28;20029;-55
2022/11/11 00:14:47;;;;;;;44.85;25.77;;;;;;;9.39;70.80;100117.28;5043626;28;20065;-55
2022/11/11 00:25:24;;;;;;;41.90;23.02;;;;;;;9.39;71.33;100111.94;5032786;28;20029;-52
2022/11/11 00:27:50;;;;;;;40.80;23.33;;;;;;;9.38;71.35;100106.69;5032940;28;20030;-53
2022/11/11 00:30:15;;;;;;;39.75;23.02;;;;;;;9.33;71.62;100094.53;5046930;28;20506;-52
2022/11/11 00:32:41;;;;;;;40.72;23.20;;;;;;;9.40;71.85;100115.44;5052821;28;20205;-54
2022/11/11 00:37:51;;;;;;;39.88;23.48;;;;;;;9.39;71.77;100105.72;5052877;28;20032;-52
2022/11/11 00:40:17;;;;;;;41.10;23.52;;;;;;;9.19;72.20;100076.81;5052813;28;20036;-54
2022/11/11 00:42:42;;;;;;;40.30;23.08;;;;;;;9.36;72.19;100114.84;5052566;28;20163;-53
2022/11/11 00:45:09;;;;;;;42.35;24.25;;;;;;;9.39;72.13;100116.41;5050275;28;20033;-57
2022/11/11 00:53:16;;;;;;;37.55;22.77;;;;;;;9.41;72.02;100095.81;5034658;28;20032;-55
2022/11/11 00:55:41;;;;;;;36.85;22.10;;;;;;;9.38;71.91;100098.69;5034616;28;20380;-54
2022/11/11 00:58:06;;;;;;;36.58;22.13;;;;;;;9.39;72.06;100098.56;5051962;28;20061;-51
2022/11/11 01:00:32;;;;;;;37.05;21.30;;;;;;;9.35;72.05;100091.75;5049961;28;20063;-54
2022/11/11 01:02:58;;;;;;;35.72;22.25;;;;;;;9.37;72.14;100094.28;5052577;28;20037;-56
2022/11/11 01:05:24;;;;;;;33.70;21.38;;;;;;;9.36;72.31;100097.94;5052126;28;20037;-55
2022/11/11 01:07:49;;;;;;;41.28;23.27;;;;;;;9.36;72.68;100095.25;5048558;28;20071;-53
2022/11/11 01:10:36;;;;;;;36.13;20.17;;;;;;;9.37;72.65;100105.84;5031679;28;20112;-54
2022/11/11 01:13:10;;;;;;;30.17;18.48;;;;;;;9.40;72.22;100096.75;5037584;28;20028;-55
2022/11/11 01:15:36;;;;;;;32.15;19.60;;;;;;;9.38;72.74;100096.00;5051879;28;20029;-51
2022/11/11 01:18:02;;;;;;;34.30;20.50;;;;;;;9.33;72.67;100094.53;5051984;28;20045;-53
2022/11/11 01:20:27;;;;;;;36.10;20.30;;;;;;;9.38;72.31;100104.03;5052367;28;20444;-51
2022/11/11 01:22:53;;;;;;;37.60;20.63;;;;;;;9.34;72.42;100101.56;5052505;28;20036;-55
2022/11/11 01:25:18;;;;;;;35.47;21.13;;;;;;;9.31;72.32;100099.13;5033731;28;20132;-54
2022/11/11 01:27:43;;;;;;;37.20;20.45;;;;;;;9.32;72.41;100102.66;5035659;28;20033;-53
2022/11/11 01:30:12;;;;;;;36.95;21.63;;;;;;;9.28;72.70;100099.34;5052259;28;20032;-53
2022/11/11 01:32:38;;;;;;;33.65;20.50;;;;;;;9.14;72.96;100075.41;5044970;28;20382;-48
2022/11/11 01:35:04;;;;;;;39.42;22.65;;;;;;;9.27;72.79;100096.75;5031913;28;20025;-52
2022/11/11 01:37:32;;;;;;;41.05;22.02;;;;;;;9.26;73.02;100093.25;5032034;28;20038;-55
2022/11/11 01:39:58;;;;;;;35.53;21.58;;;;;;;9.28;72.98;100096.66;5031561;28;20051;-54
2022/11/11 01:42:23;;;;;;;37.55;20.98;;;;;;;9.31;72.90;100091.09;5032139;28;20042;-50
2022/11/11 01:44:49;;;;;;;36.75;20.88;;;;;;;9.30;73.13;100108.09;5031768;28;20048;-53
2022/11/11 01:47:17;;;;;;;39.40;22.10;;;;;;;9.35;73.00;100105.09;5036458;28;20065;-52
2022/11/11 01:49:48;;;;;;;37.50;22.27;;;;;;;9.37;72.98;100102.31;5051911;28;20025;-52
2022/11/11 01:52:21;;;;;;;36.05;21.73;;;;;;;9.33;73.17;100091.84;5040911;28;20369;-53
2022/11/11 01:55:13;;;;;;;33.70;21.63;;;;;;;9.45;73.14;100105.31;5031970;28;20068;-55
2022/11/11 01:57:52;;;;;;;32.58;21.33;;;;;;;9.45;73.09;100105.31;5029125;28;20363;-55
2022/11/11 02:00:19;;;;;;;31.35;19.65;;;;;;;9.38;73.30;100104.03;5051255;28;20421;-53
2022/11/11 02:02:49;;;;;;;29.08;19.17;;;;;;;9.41;72.83;100103.81;5037409;28;20044;-53
2022/11/11 02:08:07;;;;;;;30.40;19.60;;;;;;;9.35;73.01;100091.75;5031512;28;20029;-55
2022/11/11 02:10:33;;;;;;;31.42;18.70;;;;;;;9.29;73.05;100090.38;5031936;28;20025;-54
2022/11/11 02:15:44;;;;;;;30.25;17.50;;;;;;;9.26;73.63;100092.38;5031501;28;20030;-55
2022/11/11 02:18:10;;;;;;;27.55;17.10;;;;;;;9.27;73.80;100104.78;5039352;28;20029;-54
2022/11/11 02:20:42;;;;;;;24.08;15.77;;;;;;;9.31;73.55;100104.47;5053849;28;20032;-57
2022/11/11 02:23:30;;;;;;;25.27;15.40;;;;;;;9.36;73.80;100108.63;5049590;28;20022;-56
2022/11/11 02:25:57;;;;;;;24.63;15.00;;;;;;;9.14;73.31;100080.75;5035348;28;20030;-51
2022/11/11 02:28:26;;;;;;;25.13;15.85;;;;;;;9.23;73.98;100095.28;5044009;28;20115;-53
2022/11/11 02:30:51;;;;;;;24.13;15.57;;;;;;;9.23;73.67;100093.47;5054860;28;20040;-54
2022/11/11 02:33:17;;;;;;;22.83;14.73;;;;;;;9.24;73.84;100089.84;5054747;28;20090;-55
2022/11/11 02:35:56;;;;;;;21.42;14.25;;;;;;;9.27;73.91;100094.09;5054923;28;20089;-55
2022/11/11 02:38:23;;;;;;;23.58;15.30;;;;;;;9.26;73.72;100087.91;5049392;28;20120;-53
2022/11/11 02:43:33;;;;;;;23.25;15.43;;;;;;;9.27;74.04;100086.94;5034724;28;20471;-56
2022/11/11 02:46:00;;;;;;;21.58;15.20;;;;;;;9.28;73.75;100091.31;5035432;28;20052;-56
2022/11/11 02:48:26;;;;;;;23.27;14.45;;;;;;;9.26;74.14;100097.72;5035337;28;20034;-53
2022/11/11 02:50:52;;;;;;;19.75;13.48;;;;;;;9.22;73.92;100097.13;5034458;28;20044;-50
2022/11/11 02:53:17;;;;;;;21.25;13.43;;;;;;;9.22;73.87;100102.47;5034445;28;20026;-53
2022/11/11 02:55:43;;;;;;;25.50;14.00;;;;;;;9.23;74.17;100108.63;5034950;28;20503;-55
2022/11/11 02:58:09;;;;;;;19.05;12.27;;;;;;;9.21;74.16;100100.75;5051339;28;20028;-55
2022/11/11 03:00:35;;;;;;;18.60;11.95;;;;;;;9.10;74.05;100076.59;5037566;28;20046;-53
2022/11/11 03:03:00;;;;;;;19.05;11.82;;;;;;;9.17;74.26;100096.59;5034391;28;20037;-61
2022/11/11 03:05:26;;;;;;;17.80;11.60;;;;;;;9.16;74.50;100100.19;5034004;28;20064;-52
2022/11/11 03:07:51;;;;;;;17.27;11.30;;;;;;;9.19;74.25;100097.34;5034557;28;20120;-55
2022/11/11 03:10:17;;;;;;;16.73;11.32;;;;;;;9.16;74.27;100084.16;5034134;28;20084;-52
2022/11/11 03:12:42;;;;;;;17.00;10.50;;;;;;;9.21;74.06;100092.72;5033967;28;20123;-56
2022/11/11 03:15:08;;;;;;;16.70;11.30;;;;;;;9.20;74.37;100093.69;5034100;28;20037;-54
2022/11/11 03:17:40;;;;;;;16.08;11.02;;;;;;;9.15;74.59;100087.81;5049149;28;20119;-54
2022/11/11 03:23:03;;;;;;;15.95;10.25;;;;;;;9.09;74.72;100069.53;5048291;28;20095;-53
2022/11/11 03:25:38;;;;;;;15.73;10.00;;;;;;;9.15;74.21;100090.47;5034406;28;20430;-54
2022/11/11 03:28:15;;;;;;;14.82;9.63;;;;;;;9.23;74.36;100105.97;5033864;28;20033;-52
2022/11/11 03:30:45;;;;;;;14.52;10.02;;;;;;;9.20;74.81;100101.72;5033122;28;20087;-53
2022/11/11 03:33:11;;;;;;;15.25;9.45;;;;;;;9.16;74.94;100108.22;5050721;28;20425;-53
2022/11/11 03:35:37;;;;;;;14.02;9.82;;;;;;;9.12;74.74;100098.72;5051231;28;20035;-53
2022/11/11 03:38:23;;;;;;;15.73;10.02;;;;;;;9.17;74.66;100110.78;5033353;28;20044;-58
2022/11/11 03:40:50;;;;;;;;;;;;;;;9.52;74.20;100111.03;5033831;28;20048;-52
2022/11/11 03:43:17;;;;;;;11.77;8.13;;;;;;;9.30;74.26;100105.44;5035400;28;19971;-52
2022/11/11 03:45:44;;;;;;;12.50;8.70;;;;;;;9.21;74.71;100107.91;5053068;28;20058;-55
2022/11/11 03:48:10;;;;;;;13.00;8.63;;;;;;;9.19;74.30;100098.16;5042413;28;20107;-54
2022/11/11 03:50:35;;;;;;;11.70;8.02;;;;;;;9.19;74.75;100108.84;5033563;28;20355;-57
2022/11/11 03:53:01;;;;;;;11.68;8.32;;;;;;;9.22;74.77;100109.59;5033641;28;20116;-51
2022/11/11 03:55:27;;;;;;;13.55;8.30;;;;;;;9.21;74.48;100114.09;5033395;28;20029;-53
2022/11/11 03:57:53;;;;;;;14.05;9.43;;;;;;;9.21;74.57;100111.44;5033607;28;20297;-58
2022/11/11 04:00:21;;;;;;;13.80;9.13;;;;;;;9.23;74.67;100106.84;5049009;28;20025;-63
2022/11/11 04:11:07;;;;;;;10.90;7.93;;;;;;;9.30;74.49;100115.28;5042137;28;20033;-59
2022/11/11 04:16:17;;;;;;;11.85;7.80;;;;;;;9.20;73.92;100107.06;5046171;28;20029;-56
2022/11/11 04:21:42;;;;;;;11.30;8.60;;;;;;;9.25;73.61;100128.09;5033248;28;20114;-56
2022/11/11 04:26:54;;;;;;;13.15;8.63;;;;;;;9.28;73.46;100126.06;5031833;28;20021;-55
2022/11/11 04:29:29;;;;;;;12.73;8.70;;;;;;;9.29;73.31;100129.59;5044418;28;20166;-54
2022/11/11 04:34:41;;;;;;;12.40;8.20;;;;;;;9.36;73.64;100130.88;5041195;28;20424;-56
2022/11/11 04:37:06;;;;;;;10.93;8.48;;;;;;;9.28;72.97;100122.53;5032283;28;20080;-57
2022/11/11 04:42:16;;;;;;;12.77;8.23;;;;;;;9.29;72.96;100125.09;5051778;28;20041;-54
2022/11/11 04:47:25;;;;;;;12.05;8.23;;;;;;;9.35;73.38;100142.53;5032324;28;20132;-56
2022/11/11 04:49:51;;;;;;;9.85;7.38;;;;;;;9.32;73.39;100140.91;5032421;28;20113;-54
2022/11/11 04:52:25;;;;;;;10.73;7.93;;;;;;;9.30;73.05;100148.19;5032838;28;20115;-55
2022/11/11 04:57:47;;;;;;;11.63;8.27;;;;;;;9.39;73.22;100151.16;5036956;28;20441;-54
2022/11/11 05:00:17;;;;;;;12.90;8.00;;;;;;;9.37;73.18;100148.59;5041704;28;20033;-57
2022/11/11 05:08:54;;;;;;;9.75;7.35;;;;;;;9.34;73.55;100141.66;5042278;28;20279;-57
2022/11/11 05:10:57;;;;;;;10.70;7.25;;;;;;;9.37;73.27;100145.06;5032240;28;20079;-52
2022/11/11 05:21:37;;;;;;;10.07;7.15;;;;;;;9.41;73.41;100144.75;5032587;28;20033;-56
2022/11/11 05:26:47;;;;;;;10.48;7.50;;;;;;;9.42;73.39;100153.63;5031976;28;20061;-52
2022/11/11 05:29:12;;;;;;;12.50;7.63;;;;;;;9.34;73.24;100144.31;5049932;28;20064;-55
2022/11/11 05:31:37;;;;;;;10.60;6.53;;;;;;;9.43;73.25;100158.84;5052147;28;20041;-55
2022/11/11 05:34:03;;;;;;;10.38;7.43;;;;;;;9.46;73.35;100157.81;5051961;28;20139;-54
2022/11/11 05:36:28;;;;;;;9.35;7.53;;;;;;;9.40;73.17;100143.03;5051724;28;20025;-56
2022/11/11 05:38:54;;;;;;;11.60;7.15;;;;;;;9.45;73.09;100148.91;5051931;28;20468;-54
2022/11/11 05:41:19;;;;;;;11.18;7.03;;;;;;;9.53;72.98;100156.38;5048953;28;20025;-55
2022/11/11 05:43:45;;;;;;;9.15;7.43;;;;;;;9.52;72.63;100151.13;5051536;28;20045;-57
2022/11/11 05:46:10;;;;;;;10.63;7.05;;;;;;;9.51;72.97;100154.78;5050851;28;20045;-58
2022/11/11 05:49:13;;;;;;;14.57;7.25;;;;;;;9.57;72.65;100159.72;5051827;28;20056;-53
2022/11/11 05:51:26;;;;;;;9.98;7.13;;;;;;;9.49;72.67;100144.22;5042329;28;20410;-68
2022/11/11 05:53:52;;;;;;;9.60;6.80;;;;;;;9.61;72.38;100170.06;5042565;28;20067;-56
2022/11/11 05:56:18;;;;;;;10.65;7.00;;;;;;;9.58;72.40;100167.59;5045348;28;20466;-55
2022/11/11 05:58:43;;;;;;;9.60;6.32;;;;;;;9.58;72.53;100167.59;5044787;28;20029;-57
2022/11/11 06:01:09;;;;;;;8.98;6.53;;;;;;;9.61;72.78;100172.72;5047191;28;20041;-56
2022/11/11 06:03:34;;;;;;;9.15;7.10;;;;;;;9.63;72.53;100169.97;5053853;28;20063;-56
2022/11/11 06:05:59;;;;;;;10.05;6.85;;;;;;;9.62;72.35;100163.75;5054809;28;20796;-59
2022/11/11 06:08:25;;;;;;;13.85;6.78;;;;;;;9.68;72.36;100177.66;5055457;28;20068;-60
2022/11/11 06:10:52;;;;;;;10.40;6.80;;;;;;;9.71;72.14;100178.28;5054738;28;20483;-57
2022/11/11 06:13:18;;;;;;;8.43;6.38;;;;;;;9.68;72.37;100172.31;5055030;28;20033;-58
2022/11/11 06:15:43;;;;;;;7.93;6.53;;;;;;;9.73;72.43;100187.03;5045422;28;20095;-58
2022/11/11 06:18:08;;;;;;;9.65;6.95;;;;;;;9.80;72.44;100191.97;5045004;28;20057;-57
2022/11/11 06:20:34;;;;;;;16.17;7.20;;;;;;;9.83;71.94;100181.88;5055213;28;20076;-60
2022/11/11 06:23:01;;;;;;;11.48;6.72;;;;;;;9.86;72.02;100197.72;5054928;28;20451;-58
2022/11/11 06:28:15;;;;;;;9.77;6.78;;;;;;;9.87;71.64;100202.09;5041413;28;20029;-63
2022/11/11 06:30:41;;;;;;;8.70;6.20;;;;;;;9.87;71.50;100203.94;5044084;28;20417;-63
2022/11/11 06:33:10;;;;;;;8.80;6.32;;;;;;;9.69;72.04;100168.69;5045001;28;20438;-56
2022/11/11 06:35:37;;;;;;;9.63;6.45;;;;;;;9.86;71.62;100203.06;5042461;28;20041;-57
2022/11/11 06:38:05;;;;;;;8.98;6.07;;;;;;;9.87;71.74;100203.94;5050594;28;20025;-57
2022/11/11 06:40:30;;;;;;;10.48;5.75;;;;;;;9.85;71.58;100189.81;5048073;28;20033;-57
2022/11/11 06:42:57;;;;;;;9.13;5.97;;;;;;;9.80;71.72;100197.31;5047648;28;20475;-57
2022/11/11 06:45:28;;;;;;;9.48;6.30;;;;;;;9.86;72.08;100194.19;5043570;28;20037;-58
2022/11/11 06:47:54;;;;;;;8.73;6.18;;;;;;;9.80;72.00;100192.81;5045808;28;20117;-55
2022/11/11 06:50:20;;;;;;;8.43;6.28;;;;;;;9.90;71.41;100204.56;5042655;28;20109;-55
2022/11/11 06:52:46;;;;;;;11.02;6.85;;;;;;;9.94;71.51;100199.00;5042953;28;20359;-59
2022/11/11 06:55:11;;;;;;;11.57;6.90;;;;;;;9.82;71.30;100174.84;5042223;28;20116;-62
2022/11/11 06:57:38;;;;;;;7.43;6.18;;;;;;;10.04;71.16;100205.38;5045316;28;20056;-59
2022/11/11 07:00:06;;;;;;;9.57;6.72;;;;;;;9.98;70.81;100189.78;5043856;28;20414;-61
2022/11/11 07:02:32;;;;;;;11.70;6.47;;;;;;;10.05;70.95;100201.75;5044447;28;20033;-62
2022/11/11 07:04:58;;;;;;;10.50;6.47;;;;;;;10.07;71.16;100207.84;5042471;28;20033;-63
2022/11/11 07:07:23;;;;;;;9.98;6.38;;;;;;;9.99;70.89;100191.50;5042282;28;20428;-60
2022/11/11 07:09:48;;;;;;;9.73;6.50;;;;;;;10.10;70.63;100207.59;5043642;28;20151;-61
2022/11/11 07:12:14;;;;;;;11.57;6.70;;;;;;;10.13;70.79;100218.13;5041085;28;20035;-62
2022/11/11 07:14:40;;;;;;;11.00;6.43;;;;;;;10.14;70.06;100214.47;5043006;28;20460;-60
2022/11/11 07:17:05;;;;;;;12.52;7.72;;;;;;;10.15;69.95;100212.63;5045655;28;20025;-61
2022/11/11 07:19:31;;;;;;;9.18;6.05;;;;;;;10.15;69.59;100212.63;5043279;28;20174;-61
2022/11/11 07:21:56;;;;;;;11.13;6.00;;;;;;;10.08;70.28;100211.38;5046933;28;20176;-60
2022/11/11 07:24:21;;;;;;;9.82;6.57;;;;;;;10.05;70.15;100220.47;5047389;28;20075;-60
2022/11/11 07:26:47;;;;;;;8.18;6.35;;;;;;;10.03;70.04;100212.56;5033565;28;20034;-60
2022/11/11 07:29:14;;;;;;;9.70;7.32;;;;;;;9.90;70.50;100190.34;5037434;28;20036;-62
2022/11/11 07:31:40;;;;;;;9.20;6.82;;;;;;;9.95;70.48;100211.41;5052791;28;20411;-67
2022/11/11 07:34:06;;;;;;;10.02;6.57;;;;;;;9.95;71.03;100212.25;5044455;28;20029;-64
2022/11/11 07:36:32;;;;;;;11.75;6.72;;;;;;;10.02;70.87;100229.59;5044378;28;20037;-64
2022/11/11 07:38:57;;;;;;;9.93;7.03;;;;;;;10.07;70.29;100225.72;5045933;28;20031;-61
2022/11/11 07:41:23;;;;;;;10.60;7.57;;;;;;;10.13;70.05;100226.13;5040752;28;20482;-62
2022/11/11 07:43:48;;;;;;;8.65;6.88;;;;;;;10.02;70.49;100223.38;5023586;28;20059;-63
2022/11/11 07:46:14;;;;;;;11.27;7.38;;;;;;;9.97;70.75;100226.38;5039431;28;20124;-64
2022/11/11 07:48:39;;;;;;;9.27;6.78;;;;;;;9.95;70.86;100232.81;5041516;28;20034;-64
2022/11/11 07:51:05;;;;;;;10.90;6.97;;;;;;;9.99;70.80;100234.28;5041458;28;20032;-63
2022/11/11 07:53:30;;;;;;;11.27;7.05;;;;;;;10.01;71.03;100235.03;5040765;28;20033;-63
2022/11/11 07:55:56;;;;;;;10.40;7.40;;;;;;;10.02;70.82;100245.63;5042576;28;20021;-63
2022/11/11 07:58:21;;;;;;;10.80;7.38;;;;;;;10.08;70.65;100243.47;5039705;28;20371;-63
2022/11/11 08:00:47;;;;;;;12.73;7.82;;;;;;;10.11;70.48;100248.59;5039630;28;20021;-63
2022/11/11 08:03:12;;;;;;;12.55;8.23;;;;;;;10.10;70.64;100246.91;5037036;28;20037;-62
2022/11/11 08:05:38;;;;;;;12.25;8.18;;;;;;;10.08;70.45;100244.31;5051305;28;20052;-61
2022/11/11 08:08:08;;;;;;;13.15;7.68;;;;;;;10.11;70.60;100257.47;5052618;28;20067;-61
2022/11/11 08:10:35;;;;;;;12.48;8.02;;;;;;;10.10;70.31;100245.06;5052706;28;20025;-62
2022/11/11 08:15:45;;;;;;;12.05;8.27;;;;;;;10.20;70.06;100243.44;5044281;28;20032;-63
2022/11/11 08:18:11;;;;;;;12.35;8.25;;;;;;;10.21;70.52;100236.25;5040964;28;20025;-62
2022/11/11 08:20:37;;;;;;;12.18;8.35;;;;;;;10.24;70.15;100233.34;5041695;28;20087;-61
2022/11/11 08:23:09;;;;;;;10.90;7.65;;;;;;;10.29;69.99;100235.72;5041392;28;20029;-64
2022/11/11 08:25:35;;;;;;;12.10;7.20;;;;;;;10.32;69.83;100230.13;5039324;28;20032;-62
2022/11/11 08:28:03;;;;;;;10.05;7.40;;;;;;;10.17;69.69;100198.19;5039379;28;20033;-63
2022/11/11 08:30:32;;;;;;;10.38;7.80;;;;;;;10.17;69.95;100195.50;5039834;28;20048;-63
2022/11/11 08:33:03;;;;;;;10.07;7.25;;;;;;;10.43;69.64;100226.69;5041836;28;20034;-64
2022/11/11 08:35:29;;;;;;;10.48;7.32;;;;;;;10.39;69.65;100220.69;5035723;28;20371;-63
2022/11/11 08:37:59;;;;;;;11.98;7.85;;;;;;;10.28;69.56;100185.81;5040703;28;20385;-64
2022/11/11 08:40:24;;;;;;;11.38;7.93;;;;;;;10.54;69.15;100213.38;5041474;28;20032;-62
2022/11/11 08:42:50;;;;;;;13.50;8.27;;;;;;;10.59;68.94;100221.06;5040540;28;20045;-61
2022/11/11 08:45:15;;;;;;;14.05;8.20;;;;;;;10.58;68.86;100214.84;5040169;28;20041;-62
2022/11/11 08:47:43;;;;;;;11.45;7.82;;;;;;;10.61;69.16;100225.34;5039823;28;20530;-62
2022/11/11 08:50:09;;;;;;;12.10;8.35;;;;;;;10.62;69.14;100213.66;5039199;28;20108;-61
2022/11/11 08:52:35;;;;;;;11.50;7.45;;;;;;;10.64;68.95;100213.56;5039568;28;20633;-64
2022/11/11 08:55:00;;;;;;;15.10;8.57;;;;;;;10.70;68.87;100217.56;5037855;28;20044;-65
2022/11/11 08:57:26;;;;;;;16.42;8.25;;;;;;;10.73;68.69;100222.69;5039869;28;20029;-63
2022/11/11 08:59:51;;;;;;;11.82;8.05;;;;;;;10.75;68.74;100224.31;5034795;28;20112;-65
2022/11/11 09:02:17;;;;;;;10.15;7.47;;;;;;;10.55;68.75;100193.69;5035172;28;20031;-63
2022/11/11 09:04:42;;;;;;;12.60;7.10;;;;;;;10.75;68.20;100231.50;5046755;28;20069;-57
2022/11/11 09:07:10;;;;;;;13.25;7.43;;;;;;;10.76;68.17;100226.00;5035270;28;20374;-63
2022/11/11 09:09:35;;;;;;;10.15;7.05;;;;;;;10.52;68.34;100190.34;5039360;28;20034;-57
2022/11/11 09:12:01;;;;;;;12.75;7.75;;;;;;;10.72;68.53;100215.63;5040618;28;20481;-59
2022/11/11 09:14:27;;;;;;;12.80;7.43;;;;;;;10.79;68.33;100216.03;5041122;28;20034;-63
2022/11/11 09:16:52;;;;;;;11.13;7.30;;;;;;;10.81;68.10;100222.13;5037318;28;20041;-60
2022/11/11 09:19:17;;;;;;;11.52;7.03;;;;;;;10.83;67.68;100217.50;5040128;28;20059;-59
2022/11/11 09:21:43;;;;;;;11.10;7.38;;;;;;;10.80;67.72;100226.66;5038902;28;20088;-54
2022/11/11 09:24:08;;;;;;;10.27;7.60;;;;;;;10.85;67.74;100228.97;5040936;28;20045;-58
2022/11/11 09:26:34;;;;;;;9.75;7.15;;;;;;;10.83;67.54;100225.53;5039288;28;20044;-58
2022/11/11 09:29:00;;;;;;;10.95;7.05;;;;;;;10.72;67.72;100208.47;5040565;28;20109;-64
2022/11/11 09:31:25;;;;;;;10.40;6.22;;;;;;;10.93;67.49;100245.31;5041723;28;20453;-60
2022/11/11 09:33:51;;;;;;;9.85;6.82;;;;;;;11.00;67.45;100235.84;5041937;28;20104;-62
2022/11/11 09:36:17;;;;;;;8.43;6.30;;;;;;;10.99;67.19;100226.09;5039741;28;20037;-62
2022/11/11 09:38:42;;;;;;;11.15;7.15;;;;;;;11.08;66.86;100221.00;5048497;28;20516;-55
2022/11/11 09:41:43;;;;;;;8.63;6.47;;;;;;;11.29;66.91;100238.09;5054284;28;20041;-56
2022/11/11 09:44:20;;;;;;;9.65;6.28;;;;;;;11.27;66.31;100237.38;5055045;28;20086;-64
2022/11/11 09:47:01;;;;;;;9.75;6.05;;;;;;;11.14;66.41;100233.94;5037964;28;20037;-62
2022/11/11 09:49:45;;;;;;;7.95;6.15;;;;;;;11.27;66.70;100241.91;5035523;28;20498;-61
2022/11/11 09:52:18;;;;;;;8.68;6.00;;;;;;;11.25;66.36;100250.03;5049131;28;20116;-62
2022/11/11 09:54:58;;;;;;;8.63;6.20;;;;;;;11.27;66.48;100237.38;5054805;28;20106;-61
2022/11/11 09:57:37;;;;;;;9.52;5.70;;;;;;;11.20;66.34;100246.88;5053591;28;20040;-61
2022/11/11 10:00:19;;;;;;;8.32;5.55;;;;;;;11.17;66.30;100231.03;5053971;28;20044;-61
2022/11/11 10:03:00;;;;;;;8.07;5.97;;;;;;;11.13;66.51;100235.75;5044224;28;20451;-62
2022/11/11 10:05:40;;;;;;;8.85;5.88;;;;;;;11.14;66.67;100233.94;5050473;28;20127;-62
2022/11/11 10:08:15;;;;;;;7.65;5.40;;;;;;;11.00;66.69;100243.88;5055347;28;20025;-62
2022/11/11 10:10:50;;;;;;;8.20;5.40;;;;;;;11.02;67.08;100241.09;5055483;28;20098;-62
2022/11/11 10:13:20;;;;;;;7.17;5.20;;;;;;;11.03;66.79;100253.53;5055413;28;20391;-63
2022/11/11 10:15:48;;;;;;;6.97;5.57;;;;;;;10.99;66.93;100244.00;5055749;28;20032;-62
2022/11/11 10:18:16;;;;;;;11.30;5.07;;;;;;;10.99;66.90;100250.22;5054557;28;20123;-62
2022/11/11 10:20:51;;;;;;;7.05;4.90;;;;;;;10.99;67.27;100254.72;5054765;28;20032;-62
2022/11/11 10:23:24;;;;;;;6.47;4.85;;;;;;;10.74;67.20;100219.91;5054451;28;20035;-62
2022/11/11 10:25:55;;;;;;;8.40;5.20;;;;;;;11.01;67.07;100256.31;5055205;28;20032;-63
2022/11/11 10:28:28;;;;;;;7.03;4.60;;;;;;;11.06;67.15;100262.16;5054864;28;20033;-59
2022/11/11 10:30:55;;;;;;;6.18;5.25;;;;;;;11.01;66.97;100268.88;5055050;28;20029;-62
2022/11/11 10:33:28;;;;;;;6.72;5.18;;;;;;;11.05;67.18;100271.16;5050716;28;20344;-62
2022/11/11 10:35:59;;;;;;;7.15;5.38;;;;;;;11.05;67.08;100281.06;5042858;28;20110;-62
2022/11/11 10:38:48;;;;;;;9.30;5.20;;;;;;;11.16;67.10;100272.19;5035681;28;20483;-63
2022/11/11 10:41:45;;;;;;;9.70;5.50;;;;;;;11.12;67.24;100284.13;5033739;28;20036;-61
2022/11/11 10:44:25;;;;;;;8.60;5.45;;;;;;;11.11;67.06;100293.13;5033592;28;20056;-61
2022/11/11 10:47:04;;;;;;;5.60;4.80;;;;;;;11.07;67.43;100281.78;5034007;28;20037;-61
2022/11/11 10:49:34;;;;;;;6.55;4.78;;;;;;;10.96;67.60;100285.28;5034596;28;20129;-62
2022/11/11 10:52:12;;;;;;;10.38;5.40;;;;;;;10.94;67.51;100289.03;5034774;28;20033;-62
2022/11/11 10:54:49;;;;;;;9.95;5.65;;;;;;;10.77;67.98;100259.03;5034366;28;20037;-62
2022/11/11 10:57:23;;;;;;;11.32;6.07;;;;;;;10.80;67.84;100268.63;5034392;28;20086;-62
2022/11/11 11:00:08;;;;;;;8.23;5.35;;;;;;;10.90;68.14;100283.06;5034284;28;20037;-62
2022/11/11 11:02:52;;;;;;;8.00;5.50;;;;;;;10.79;68.11;100285.66;5033764;28;20098;-62
2022/11/11 11:05:40;;;;;;;7.88;5.78;;;;;;;10.92;68.23;100297.19;5034051;28;20038;-63
2022/11/11 11:08:11;;;;;;;12.35;5.85;;;;;;;10.85;68.06;100295.91;5039173;28;20036;-63
2022/11/11 11:10:41;;;;;;;7.57;5.78;;;;;;;10.80;68.31;100300.78;5034343;28;20510;-62
2022/11/11 11:13:14;;;;;;;7.53;6.18;;;;;;;10.75;68.36;100295.78;5033905;28;20514;-62
2022/11/11 11:15:48;;;;;;;8.68;6.20;;;;;;;10.71;68.51;100302.31;5033818;28;20445;-61
2022/11/11 11:18:15;;;;;;;8.38;5.90;;;;;;;10.73;68.50;100309.28;5033757;28;20048;-62
2022/11/11 11:20:54;;;;;;;8.73;5.65;;;;;;;10.77;68.78;100307.22;5052751;28;20032;-62
2022/11/11 11:23:40;;;;;;;7.63;5.95;;;;;;;10.78;68.67;100308.94;5054266;28;20108;-62
2022/11/11 11:26:07;;;;;;;8.15;5.80;;;;;;;10.66;69.11;100310.69;5053331;28;20144;-62
2022/11/11 11:28:33;;;;;;;7.18;5.85;;;;;;;10.48;69.10;100281.63;5045778;28;20048;-63
2022/11/11 11:31:00;;;;;;;8.65;5.90;;;;;;;10.61;69.14;100305.66;5052853;28;20033;-62
2022/11/11 11:33:25;;;;;;;9.20;6.18;;;;;;;10.68;69.14;100318.59;5052710;28;20045;-62
2022/11/11 11:35:51;;;;;;;12.25;6.13;;;;;;;10.70;69.04;100322.88;5046606;28;20034;-56
2022/11/11 11:38:17;;;;;;;9.20;6.03;;;;;;;10.60;68.93;100303.97;5043480;28;20361;-61
2022/11/11 11:40:50;;;;;;;8.82;6.60;;;;;;;10.75;69.11;100325.25;5042614;28;20486;-65
2022/11/11 11:43:34;;;;;;;8.82;6.32;;;;;;;10.60;69.41;100287.88;5040039;28;20077;-61
2022/11/11 11:46:03;;;;;;;8.82;6.07;;;;;;;10.71;69.49;100323.72;5042577;28;20045;-62
2022/11/11 11:48:34;;;;;;;10.88;6.25;;;;;;;10.66;69.37;100302.66;5040734;28;20029;-62
2022/11/11 11:51:26;;;;;;;9.60;6.68;;;;;;;10.76;69.71;100317.06;5043953;28;20106;-61
2022/11/11 11:53:57;;;;;;;14.63;7.10;;;;;;;10.66;69.68;100308.03;5043125;28;20027;-62
2022/11/11 11:56:32;;;;;;;9.82;5.85;;;;;;;10.68;69.97;100314.13;5040862;28;20367;-63
2022/11/11 11:59:01;;;;;;;10.35;6.57;;;;;;;10.64;70.34;100301.91;5041434;28;20089;-62
2022/11/11 12:01:59;;;;;;;9.93;5.75;;;;;;;10.71;70.49;100311.22;5039758;28;20114;-61
2022/11/11 12:04:40;;;;;;;9.50;6.20;;;;;;;10.68;70.42;100311.44;5041169;28;20029;-62
2022/11/11 12:07:37;;;;;;;11.82;6.80;;;;;;;10.48;70.65;100281.63;5040791;28;20029;-62
2022/11/11 12:10:05;;;;;;;10.32;6.72;;;;;;;10.60;70.86;100303.09;5040604;28;20159;-62
2022/11/11 12:13:00;;;;;;;9.50;6.00;;;;;;;10.59;71.25;100304.94;5038819;28;20037;-62
2022/11/11 12:15:34;;;;;;;11.30;6.90;;;;;;;10.62;71.09;100303.84;5033564;28;20060;-62
2022/11/11 12:18:45;;;;;;;10.75;7.15;;;;;;;10.63;71.28;100300.22;5034034;28;20064;-62
2022/11/11 12:21:13;;;;;;;11.07;6.53;;;;;;;10.61;70.85;100294.13;5010921;28;20566;-60
2022/11/11 12:23:58;;;;;;;12.40;7.28;;;;;;;10.69;71.00;100294.41;5036272;28;20045;-61
2022/11/11 12:26:55;;;;;;;13.18;6.40;;;;;;;10.63;70.98;100295.69;5041067;28;20033;-61
2022/11/11 12:29:43;;;;;;;10.90;7.32;;;;;;;10.47;71.25;100271.00;5041161;28;20068;-64
2022/11/11 12:32:17;;;;;;;8.70;6.65;;;;;;;10.60;71.27;100293.25;5040713;28;20036;-64
2022/11/11 12:35:12;;;;;;;9.00;6.18;;;;;;;10.65;71.30;100290.25;5043238;28;20094;-61
2022/11/11 12:38:05;;;;;;;14.98;6.60;;;;;;;10.63;70.91;100286.81;5039278;28;20076;-62
2022/11/11 12:40:48;;;;;;;7.72;6.25;;;;;;;10.56;70.70;100281.06;5040210;28;20103;-62
2022/11/11 12:43:23;;;;;;;8.75;6.43;;;;;;;10.56;71.22;100290.91;5041627;28;20067;-61
2022/11/11 12:45:59;;;;;;;9.20;6.78;;;;;;;10.49;71.33;100293.19;5041131;28;20041;-63
2022/11/11 12:48:47;;;;;;;10.88;6.53;;;;;;;10.53;71.43;100292.00;5036770;28;20040;-62
2022/11/11 12:51:24;;;;;;;10.52;6.30;;;;;;;10.39;71.24;100281.41;5041442;28;20120;-62